createdAt,value
2019-03-26T00:00:39.498Z,101622.94
2019-03-26T00:03:08.904Z,101625.14
2019-03-26T00:05:38.304Z,101619.52
2019-03-26T00:08:07.645Z,101623.55
2019-03-26T00:10:36.994Z,101617.34
2019-03-26T00:13:06.513Z,101624.01
2019-03-26T00:15:35.890Z,101621.41
2019-03-26T00:18:07.698Z,101620.08
2019-03-26T00:20:37.064Z,101621.89
2019-03-26T00:23:06.407Z,101629.55
2019-03-26T00:25:35.643Z,101633.98
2019-03-26T00:28:05.060Z,101633.92
2019-03-26T00:30:34.521Z,101642.88
2019-03-26T00:33:03.865Z,101637.20
2019-03-26T00:35:33.093Z,101641.23
2019-03-26T00:38:02.451Z,101638.77
2019-03-26T00:40:31.761Z,101645.61
2019-03-26T00:43:01.053Z,101649.53
2019-03-26T00:45:30.417Z,101638.83
2019-03-26T00:47:59.747Z,101640.38
2019-03-26T00:50:29.122Z,101640.41
2019-03-26T00:52:58.565Z,101647.16
2019-03-26T00:55:27.940Z,101650.63
2019-03-26T00:57:57.296Z,101653.43
2019-03-26T01:00:38.279Z,101650.83
2019-03-26T01:03:07.911Z,101650.44
2019-03-26T01:05:37.598Z,101646.77
2019-03-26T01:08:07.074Z,101658.66
2019-03-26T01:10:36.452Z,101662.42
2019-03-26T01:13:05.828Z,101645.83
2019-03-26T01:15:35.259Z,101656.97
2019-03-26T01:18:04.685Z,101663.02
2019-03-26T01:20:34.032Z,101662.27
2019-03-26T01:23:03.381Z,101667.44
2019-03-26T01:25:32.944Z,101664.73
2019-03-26T01:28:02.390Z,101666.81
2019-03-26T01:30:31.700Z,101668.47
2019-03-26T01:33:01.137Z,101675.91
2019-03-26T01:35:30.573Z,101671.13
2019-03-26T01:38:00.003Z,101674.76
2019-03-26T01:40:29.517Z,101680.41
2019-03-26T01:42:58.879Z,101684.59
2019-03-26T01:45:28.167Z,101681.13
2019-03-26T01:47:57.575Z,101679.52
2019-03-26T01:50:26.983Z,101676.19
2019-03-26T01:52:56.964Z,101670.58
2019-03-26T01:55:26.368Z,101673.02
2019-03-26T01:57:55.793Z,101679.52
2019-03-26T02:00:25.466Z,101678.91
2019-03-26T02:02:54.807Z,101682.29
2019-03-26T02:05:24.104Z,101683.88
2019-03-26T02:07:53.401Z,101685.59
2019-03-26T02:10:22.792Z,101692.11
2019-03-26T02:12:52.105Z,101693.91
2019-03-26T02:15:28.566Z,101693.72
2019-03-26T02:17:57.964Z,101702.23
2019-03-26T02:20:27.373Z,101698.86
2019-03-26T02:22:56.840Z,101705.69
2019-03-26T02:25:26.167Z,101704.84
2019-03-26T02:27:55.491Z,101708.94
2019-03-26T02:30:24.973Z,101705.30
2019-03-26T02:32:54.245Z,101711.34
2019-03-26T02:35:23.636Z,101716.04
2019-03-26T02:37:52.877Z,101713.40
2019-03-26T02:40:22.274Z,101704.53
2019-03-26T02:42:51.876Z,101709.48
2019-03-26T02:45:21.310Z,101710.40
2019-03-26T02:47:50.700Z,101712.59
2019-03-26T02:50:20.000Z,101718.73
2019-03-26T02:52:49.335Z,101721.70
2019-03-26T02:55:18.671Z,101714.05
2019-03-26T02:57:48.078Z,101710.20
2019-03-26T03:00:17.465Z,101717.41
2019-03-26T03:02:46.833Z,101720.18
2019-03-26T03:05:33.782Z,101717.41
2019-03-26T03:07:47.276Z,101721.44
2019-03-26T03:10:16.922Z,101725.80
2019-03-26T03:12:46.337Z,101723.62
2019-03-26T03:15:15.804Z,101737.69
2019-03-26T03:17:45.173Z,101734.91
2019-03-26T03:20:14.594Z,101730.28
2019-03-26T03:22:43.830Z,101738.32
2019-03-26T03:25:13.185Z,101735.98
2019-03-26T03:27:42.490Z,101734.92
2019-03-26T03:30:12.103Z,101741.80
2019-03-26T03:32:41.547Z,101746.78
2019-03-26T03:35:10.958Z,101746.88
2019-03-26T03:37:40.189Z,101746.80
2019-03-26T03:40:09.782Z,101750.44
2019-03-26T03:42:39.156Z,101748.13
2019-03-26T03:45:09.709Z,101753.62
2019-03-26T03:47:39.967Z,101750.20
2019-03-26T03:50:09.817Z,101751.44
2019-03-26T03:52:40.821Z,101753.28
2019-03-26T03:55:11.200Z,101763.94
2019-03-26T03:57:41.005Z,101768.27
2019-03-26T04:00:44.293Z,101771.34
2019-03-26T04:03:13.827Z,101773.57
2019-03-26T04:05:43.347Z,101768.70
2019-03-26T04:08:12.829Z,101782.22
2019-03-26T04:10:42.433Z,101779.41
2019-03-26T04:13:11.863Z,101776.73
2019-03-26T04:15:41.465Z,101784.66
2019-03-26T04:18:11.108Z,101783.48
2019-03-26T04:20:40.590Z,101784.42
2019-03-26T04:23:19.292Z,101798.31
2019-03-26T04:25:48.767Z,101796.31
2019-03-26T04:28:18.319Z,101807.99
2019-03-26T04:30:48.227Z,101803.87
2019-03-26T04:33:17.634Z,101808.39
2019-03-26T04:35:59.944Z,101812.10
2019-03-26T04:38:29.434Z,101805.86
2019-03-26T04:41:01.362Z,101810.37
2019-03-26T04:43:32.586Z,101813.91
2019-03-26T04:46:02.100Z,101816.69
2019-03-26T04:48:31.754Z,101821.08
2019-03-26T04:51:01.271Z,101818.98
2019-03-26T04:53:34.293Z,101821.80
2019-03-26T04:56:04.028Z,101818.93
2019-03-26T04:58:33.596Z,101821.57
2019-03-26T05:01:03.125Z,101827.86
2019-03-26T05:03:32.588Z,101826.92
2019-03-26T05:06:14.598Z,101821.77
2019-03-26T05:08:47.713Z,101821.98
2019-03-26T05:11:17.320Z,101826.43
2019-03-26T05:13:46.914Z,101827.33
2019-03-26T05:16:16.512Z,101830.09
2019-03-26T05:18:46.040Z,101827.00
2019-03-26T05:21:16.893Z,101827.28
2019-03-26T05:23:46.320Z,101824.79
2019-03-26T05:26:15.824Z,101828.11
2019-03-26T05:28:50.157Z,101823.30
2019-03-26T05:31:19.479Z,101830.14
2019-03-26T05:33:48.950Z,101823.80
2019-03-26T05:36:18.273Z,101821.78
2019-03-26T05:38:47.715Z,101827.58
2019-03-26T05:41:17.275Z,101825.97
2019-03-26T05:43:46.560Z,101826.72
2019-03-26T05:46:16.028Z,101830.73
2019-03-26T05:48:45.498Z,101832.61
2019-03-26T05:51:14.892Z,101832.96
2019-03-26T05:53:44.361Z,101835.81
2019-03-26T05:56:13.820Z,101833.92
2019-03-26T05:58:43.323Z,101827.69
2019-03-26T06:01:12.814Z,101835.23
2019-03-26T06:03:42.065Z,101850.72
2019-03-26T06:06:11.710Z,101840.47
2019-03-26T06:08:40.988Z,101835.55
2019-03-26T06:11:10.389Z,101843.63
2019-03-26T06:13:39.731Z,101844.77
2019-03-26T06:16:09.203Z,101843.61
2019-03-26T06:18:38.472Z,101852.32
2019-03-26T06:21:07.859Z,101857.13
2019-03-26T06:23:37.130Z,101860.20
2019-03-26T06:26:06.537Z,101860.41
2019-03-26T06:28:35.835Z,101859.83
2019-03-26T06:31:05.191Z,101853.08
2019-03-26T06:33:34.459Z,101845.83
2019-03-26T06:36:03.923Z,101846.56
2019-03-26T06:38:33.230Z,101849.45
2019-03-26T06:41:02.630Z,101849.28
2019-03-26T06:43:31.916Z,101844.41
2019-03-26T06:46:01.194Z,101849.16
2019-03-26T06:48:30.472Z,101851.57
2019-03-26T06:50:59.944Z,101852.89
2019-03-26T06:53:29.282Z,101859.17
2019-03-26T06:55:58.545Z,101858.89
2019-03-26T06:58:27.938Z,101851.83
2019-03-26T07:00:57.269Z,101856.52
2019-03-26T07:03:26.861Z,101857.08
2019-03-26T07:05:56.130Z,101866.89
2019-03-26T07:08:25.451Z,101862.14
2019-03-26T07:10:54.781Z,101863.17
2019-03-26T07:13:24.141Z,101872.02
2019-03-26T07:15:53.595Z,101877.60
2019-03-26T07:18:22.953Z,101881.02
2019-03-26T07:20:52.311Z,101879.02
2019-03-26T07:23:21.702Z,101877.69
2019-03-26T07:25:50.986Z,101882.03
2019-03-26T07:28:20.428Z,101888.66
2019-03-26T07:30:49.828Z,101886.27
2019-03-26T07:33:19.136Z,101889.16
2019-03-26T07:35:48.466Z,101888.30
2019-03-26T07:38:17.831Z,101894.82
2019-03-26T07:40:47.201Z,101898.91
2019-03-26T07:43:16.559Z,101894.70
2019-03-26T07:45:45.929Z,101897.72
2019-03-26T07:48:15.216Z,101903.99
2019-03-26T07:50:44.475Z,101899.36
2019-03-26T07:53:13.853Z,101903.79
2019-03-26T07:55:44.028Z,101897.59
2019-03-26T07:58:13.564Z,101905.50
2019-03-26T08:00:42.822Z,101908.18
2019-03-26T08:03:12.162Z,101902.30
2019-03-26T08:05:42.377Z,101896.00
2019-03-26T08:08:11.750Z,101904.18
2019-03-26T08:10:43.072Z,101900.27
2019-03-26T08:13:17.038Z,101902.05
2019-03-26T08:15:46.269Z,101900.81
2019-03-26T08:18:15.701Z,101898.39
2019-03-26T08:20:45.055Z,101912.00
2019-03-26T08:23:14.406Z,101919.92
2019-03-26T08:25:43.701Z,101920.84
2019-03-26T08:28:12.998Z,101923.83
2019-03-26T08:30:42.322Z,101927.20
2019-03-26T08:33:11.747Z,101927.84
2019-03-26T08:35:41.036Z,101937.38
2019-03-26T08:38:12.756Z,101937.97
2019-03-26T08:40:41.387Z,101938.52
2019-03-26T08:43:10.823Z,101941.56
2019-03-26T08:45:40.135Z,101944.77
2019-03-26T08:48:09.412Z,101949.19
2019-03-26T08:50:38.703Z,101954.09
2019-03-26T08:53:09.533Z,101956.77
2019-03-26T08:55:38.857Z,101966.41
2019-03-26T08:58:08.276Z,101961.55
2019-03-26T09:00:37.582Z,101962.57
2019-03-26T09:03:07.007Z,101970.59
2019-03-26T09:05:36.319Z,101973.18
2019-03-26T09:08:06.398Z,101986.88
2019-03-26T09:10:35.743Z,101984.17
2019-03-26T09:13:05.226Z,101977.91
2019-03-26T09:15:34.614Z,101987.23
2019-03-26T09:18:03.922Z,101993.55
2019-03-26T09:20:33.211Z,101988.39
2019-03-26T09:23:02.569Z,101998.82
2019-03-26T09:25:31.921Z,101986.50
2019-03-26T09:28:01.253Z,101998.08
2019-03-26T09:30:30.675Z,102001.41
2019-03-26T09:32:59.896Z,102004.55
2019-03-26T09:35:29.194Z,102014.24
2019-03-26T09:37:58.459Z,102014.83
2019-03-26T09:40:27.722Z,102021.75
2019-03-26T09:42:57.032Z,102024.20
2019-03-26T09:45:26.326Z,102018.12
2019-03-26T09:47:55.603Z,102025.89
2019-03-26T09:50:33.337Z,102021.30
2019-03-26T09:53:02.779Z,102018.24
2019-03-26T09:55:34.108Z,102022.23
2019-03-26T09:58:03.499Z,102014.09
2019-03-26T10:00:32.936Z,102016.84
2019-03-26T10:03:02.205Z,102012.77
2019-03-26T10:05:31.471Z,102006.47
2019-03-26T10:08:00.756Z,102007.03
2019-03-26T10:10:30.029Z,102007.02
2019-03-26T10:12:59.380Z,101993.77
2019-03-26T10:15:28.715Z,102001.77
2019-03-26T10:17:57.986Z,102000.67
2019-03-26T10:20:27.432Z,101998.97
2019-03-26T10:22:56.796Z,102003.55
2019-03-26T10:25:26.157Z,102000.74
2019-03-26T10:27:55.437Z,101999.73
2019-03-26T10:30:33.847Z,101999.31
2019-03-26T10:33:03.383Z,101991.75
2019-03-26T10:35:32.592Z,101986.63
2019-03-26T10:38:01.928Z,101996.36
2019-03-26T10:40:32.333Z,101984.02
2019-03-26T10:43:01.746Z,101976.94
2019-03-26T10:45:31.084Z,101964.44
2019-03-26T10:48:00.443Z,101964.36
2019-03-26T10:50:29.668Z,101975.33
2019-03-26T10:52:58.920Z,101970.80
2019-03-26T10:55:28.163Z,101958.16
2019-03-26T10:57:57.334Z,101962.53
2019-03-26T11:00:27.072Z,101953.09
2019-03-26T11:02:56.346Z,101949.05
2019-03-26T11:05:25.503Z,101944.72
2019-03-26T11:07:54.753Z,101936.28
2019-03-26T11:10:23.914Z,101927.67
2019-03-26T11:12:53.183Z,101921.91
2019-03-26T11:15:22.421Z,101916.11
2019-03-26T11:17:51.583Z,101919.88
2019-03-26T11:20:20.907Z,101923.42
2019-03-26T11:22:50.160Z,101924.28
2019-03-26T11:25:19.534Z,101924.78
2019-03-26T11:27:48.781Z,101929.47
2019-03-26T11:30:18.327Z,101927.69
2019-03-26T11:32:47.504Z,101933.89
2019-03-26T11:35:16.707Z,101935.81
2019-03-26T11:37:45.875Z,101926.94
2019-03-26T11:40:15.252Z,101929.34
2019-03-26T11:42:44.680Z,101927.09
2019-03-26T11:45:14.157Z,101924.87
2019-03-26T11:47:43.328Z,101920.96
2019-03-26T11:50:13.071Z,101926.86
2019-03-26T11:52:42.324Z,101916.92
2019-03-26T11:55:11.798Z,101909.30
2019-03-26T11:57:41.075Z,101916.27
2019-03-26T12:00:14.445Z,101917.58
2019-03-26T12:02:43.604Z,101914.03
2019-03-26T12:05:13.019Z,101920.89
2019-03-26T12:07:44.263Z,101911.52
2019-03-26T12:10:13.543Z,101915.50
2019-03-26T12:12:43.292Z,101912.13
2019-03-26T12:15:13.483Z,101905.89
2019-03-26T12:17:42.803Z,101894.33
2019-03-26T12:20:12.117Z,101897.21
2019-03-26T12:22:41.339Z,101892.14
2019-03-26T12:25:10.662Z,101895.91
2019-03-26T12:27:39.865Z,101890.93
2019-03-26T12:30:09.469Z,101894.98
2019-03-26T12:32:40.925Z,101889.47
2019-03-26T12:35:11.861Z,101886.52
2019-03-26T12:37:43.070Z,101883.92
2019-03-26T12:40:12.422Z,101875.91
2019-03-26T12:42:41.656Z,101885.81
2019-03-26T12:45:11.128Z,101882.88
2019-03-26T12:47:40.291Z,101888.30
2019-03-26T12:50:10.576Z,101882.33
2019-03-26T12:52:39.775Z,101882.30
2019-03-26T12:55:09.133Z,101881.59
2019-03-26T12:57:38.413Z,101883.94
2019-03-26T13:00:08.721Z,101880.13
2019-03-26T13:02:37.981Z,101878.69
2019-03-26T13:05:07.468Z,101882.95
2019-03-26T13:07:36.619Z,101880.57
2019-03-26T13:10:13.618Z,101882.36
2019-03-26T13:12:36.903Z,101880.67
2019-03-26T13:15:06.182Z,101883.80
2019-03-26T13:17:35.368Z,101884.64
2019-03-26T13:20:04.898Z,101876.83
2019-03-26T13:22:34.185Z,101870.18
2019-03-26T13:25:03.527Z,101869.25
2019-03-26T13:27:32.831Z,101873.84
2019-03-26T13:30:01.984Z,101877.91
2019-03-26T13:32:31.153Z,101867.86
2019-03-26T13:35:00.458Z,101867.31
2019-03-26T13:37:29.925Z,101852.59
2019-03-26T13:39:59.162Z,101858.34
2019-03-26T13:42:28.346Z,101858.88
2019-03-26T13:44:57.701Z,101846.52
2019-03-26T13:47:26.869Z,101839.14
2019-03-26T13:49:56.112Z,101840.86
2019-03-26T13:52:25.440Z,101836.29
2019-03-26T13:54:54.626Z,101845.15
2019-03-26T13:57:23.815Z,101832.88
2019-03-26T13:59:53.090Z,101837.97
2019-03-26T14:02:22.276Z,101843.00
2019-03-26T14:04:51.438Z,101843.94
2019-03-26T14:07:20.744Z,101837.38
2019-03-26T14:09:52.295Z,101837.91
2019-03-26T14:12:21.457Z,101828.84
2019-03-26T14:14:50.589Z,101824.91
2019-03-26T14:17:19.777Z,101831.11
2019-03-26T14:19:48.964Z,101812.44
2019-03-26T14:22:18.154Z,101826.72
2019-03-26T14:24:47.342Z,101823.95
2019-03-26T14:27:16.620Z,101822.47
2019-03-26T14:29:45.787Z,101825.49
2019-03-26T14:32:14.947Z,101829.53
2019-03-26T14:34:44.129Z,101821.91
2019-03-26T14:37:13.311Z,101823.16
2019-03-26T14:39:42.580Z,101823.58
2019-03-26T14:42:11.770Z,101826.58
2019-03-26T14:44:40.989Z,101820.67
2019-03-26T14:47:10.189Z,101828.01
2019-03-26T14:49:39.347Z,101833.41
2019-03-26T14:52:08.592Z,101837.03
2019-03-26T14:54:37.804Z,101831.12
2019-03-26T14:57:06.961Z,101827.89
2019-03-26T14:59:36.141Z,101843.19
2019-03-26T15:02:05.391Z,101835.89
2019-03-26T15:04:34.567Z,101823.48
2019-03-26T15:07:03.821Z,101828.19
2019-03-26T15:09:33.093Z,101828.50
2019-03-26T15:12:03.522Z,101826.91
2019-03-26T15:14:32.757Z,101828.10
2019-03-26T15:17:02.077Z,101821.86
2019-03-26T15:19:31.371Z,101834.30
2019-03-26T15:22:00.609Z,101822.38
2019-03-26T15:24:29.794Z,101832.70
2019-03-26T15:26:58.985Z,101831.71
2019-03-26T15:29:28.137Z,101830.48
2019-03-26T15:31:57.454Z,101828.59
2019-03-26T15:34:36.128Z,101838.50
2019-03-26T15:36:57.543Z,101835.17
2019-03-26T15:39:28.912Z,101831.90
2019-03-26T15:41:58.095Z,101838.73
2019-03-26T15:44:27.333Z,101835.89
2019-03-26T15:46:56.598Z,101836.80
2019-03-26T15:49:25.774Z,101826.27
2019-03-26T15:51:57.488Z,101829.08
2019-03-26T15:54:26.659Z,101827.02
2019-03-26T15:56:55.812Z,101830.22
2019-03-26T15:59:25.007Z,101825.50
2019-03-26T16:01:54.177Z,101827.20
2019-03-26T16:04:23.423Z,101826.53
2019-03-26T16:06:52.770Z,101821.48
2019-03-26T16:09:22.089Z,101820.03
2019-03-26T16:11:51.675Z,101830.37
2019-03-26T16:14:21.120Z,101827.90
2019-03-26T16:16:50.496Z,101832.70
2019-03-26T16:19:32.272Z,101833.92
2019-03-26T16:21:50.595Z,101825.11
2019-03-26T16:24:19.767Z,101833.16
2019-03-26T16:26:49.015Z,101827.13
2019-03-26T16:29:18.182Z,101824.20
2019-03-26T16:31:47.650Z,101821.36
2019-03-26T16:34:16.837Z,101825.38
2019-03-26T16:36:58.743Z,101818.17
2019-03-26T16:39:16.919Z,101825.30
2019-03-26T16:41:49.399Z,101827.36
2019-03-26T16:44:17.454Z,101823.12
2019-03-26T16:46:46.831Z,101826.77
2019-03-26T16:49:16.726Z,101821.88
2019-03-26T16:51:46.117Z,101827.13
2019-03-26T16:54:15.397Z,101826.16
2019-03-26T16:56:44.767Z,101826.11
2019-03-26T16:59:14.012Z,101836.34
2019-03-26T17:01:43.252Z,101826.92
2019-03-26T17:04:12.494Z,101832.02
2019-03-26T17:06:41.809Z,101834.09
2019-03-26T17:09:11.031Z,101831.42
2019-03-26T17:11:40.296Z,101835.47
2019-03-26T17:14:09.537Z,101832.47
2019-03-26T17:16:38.778Z,101832.02
2019-03-26T17:19:07.993Z,101839.39
2019-03-26T17:21:37.300Z,101841.38
2019-03-26T17:24:06.472Z,101843.59
2019-03-26T17:26:37.639Z,101849.75
2019-03-26T17:29:06.800Z,101840.25
2019-03-26T17:31:35.979Z,101839.76
2019-03-26T17:34:05.184Z,101840.80
2019-03-26T17:36:34.283Z,101832.20
2019-03-26T17:39:04.635Z,101838.70
2019-03-26T17:41:33.806Z,101836.24
2019-03-26T17:44:02.965Z,101843.23
2019-03-26T17:46:32.143Z,101850.23
2019-03-26T17:49:01.318Z,101852.02
2019-03-26T17:51:52.903Z,101851.53
2019-03-26T17:54:27.647Z,101864.05
2019-03-26T17:57:04.912Z,101865.00
2019-03-26T18:00:02.482Z,101859.94
2019-03-26T18:04:01.238Z,101855.98
2019-03-26T18:06:11.087Z,101863.50
2019-03-26T18:08:49.948Z,101857.47
2019-03-26T18:11:32.696Z,101866.30
2019-03-26T18:14:09.817Z,101871.96
2019-03-26T18:17:29.928Z,101873.17
2019-03-26T18:21:51.942Z,101876.70
2019-03-26T18:22:57.228Z,101871.84
2019-03-26T18:26:08.578Z,101867.95
2019-03-26T18:29:06.352Z,101872.58
2019-03-26T18:32:00.938Z,101869.12
2019-03-26T18:38:22.426Z,101864.16
2019-03-26T18:41:32.672Z,101869.75
2019-03-26T18:44:48.897Z,101864.63
2019-03-26T18:47:31.237Z,101872.36
2019-03-26T18:50:06.791Z,101869.36
2019-03-26T18:52:47.801Z,101865.52
2019-03-26T18:55:35.712Z,101864.97
2019-03-26T18:58:52.112Z,101875.47
2019-03-26T19:01:26.094Z,101875.59
2019-03-26T19:04:57.294Z,101877.92
2019-03-26T19:07:34.416Z,101881.23
2019-03-26T19:10:57.838Z,101883.92
2019-03-26T19:13:31.936Z,101890.13
2019-03-26T19:20:45.759Z,101900.70
2019-03-26T19:24:02.994Z,101897.91
2019-03-26T19:29:59.507Z,101898.69
2019-03-26T19:32:50.263Z,101905.63
2019-03-26T19:35:50.359Z,101906.03
2019-03-26T19:38:29.624Z,101900.28
2019-03-26T19:41:11.739Z,101902.52
2019-03-26T19:43:49.727Z,101906.76
2019-03-26T19:46:33.747Z,101905.00
2019-03-26T19:49:35.817Z,101905.11
2019-03-26T19:52:25.005Z,101905.77
2019-03-26T19:55:09.085Z,101907.68
2019-03-26T19:57:52.071Z,101904.30
2019-03-26T20:01:56.452Z,101907.03
2019-03-26T20:07:08.940Z,101920.20
2019-03-26T20:10:03.538Z,101920.28
2019-03-26T20:13:00.381Z,101912.52
2019-03-26T20:16:04.715Z,101912.36
2019-03-26T20:19:23.146Z,101917.70
2019-03-26T20:25:54.727Z,101918.95
2019-03-26T20:29:09.214Z,101919.25
2019-03-26T20:32:00.433Z,101922.25
2019-03-26T20:38:14.603Z,101927.19
2019-03-26T20:41:15.106Z,101934.30
2019-03-26T20:44:14.624Z,101937.12
2019-03-26T20:47:16.988Z,101931.58
2019-03-26T20:50:29.788Z,101937.34
2019-03-26T20:53:55.934Z,101943.34
2019-03-26T20:56:49.939Z,101942.93
2019-03-26T20:59:35.470Z,101939.65
2019-03-26T21:02:17.059Z,101944.27
2019-03-26T21:05:22.145Z,101936.85
2019-03-26T21:08:21.838Z,101935.72
2019-03-26T21:11:06.729Z,101937.75
2019-03-26T21:13:51.214Z,101938.95
2019-03-26T21:16:43.715Z,101932.45
2019-03-26T21:19:50.889Z,101934.45
2019-03-26T21:22:13.446Z,101939.18
2019-03-26T21:25:02.981Z,101927.94
2019-03-26T21:27:45.310Z,101933.12
2019-03-26T21:30:47.160Z,101928.34
2019-03-26T21:33:44.703Z,101925.84
2019-03-26T21:37:37.199Z,101930.80
2019-03-26T21:39:14.958Z,101933.04
2019-03-26T21:42:11.162Z,101933.11
2019-03-26T21:45:08.478Z,101934.89
2019-03-26T21:48:03.937Z,101932.97
2019-03-26T21:54:23.793Z,101921.81
2019-03-26T21:56:31.897Z,101920.63
2019-03-26T21:59:15.233Z,101919.73
2019-03-26T22:02:10.281Z,101920.02
2019-03-26T22:05:28.072Z,101916.70
2019-03-26T22:10:36.852Z,101923.88
2019-03-26T22:15:55.693Z,101923.20
2019-03-26T22:18:35.820Z,101925.00
2019-03-26T22:21:37.125Z,101926.95
2019-03-26T22:24:26.379Z,101930.22
2019-03-26T22:27:25.459Z,101936.52
2019-03-26T22:29:59.304Z,101951.27
2019-03-26T22:33:04.315Z,101952.02
2019-03-26T22:35:47.944Z,101954.78
2019-03-26T22:38:27.888Z,101957.81
2019-03-26T22:41:08.972Z,101956.21
2019-03-26T22:44:03.932Z,101955.77
2019-03-26T22:46:43.894Z,101951.43
2019-03-26T22:49:34.102Z,101959.92
2019-03-26T22:52:12.729Z,101958.28
2019-03-26T22:55:13.163Z,101958.02
2019-03-26T22:58:08.722Z,101951.05
2019-03-26T23:00:41.867Z,101961.73
2019-03-26T23:03:13.009Z,101964.84
2019-03-26T23:05:44.440Z,101972.57
2019-03-26T23:08:30.172Z,101973.16
2019-03-26T23:11:45.210Z,101975.17
2019-03-26T23:18:02.116Z,101967.13
2019-03-26T23:20:38.423Z,101962.63
2019-03-26T23:23:35.444Z,101964.98
2019-03-26T23:26:13.886Z,101970.48
2019-03-26T23:29:00.376Z,101968.84
2019-03-26T23:31:24.659Z,101969.63
2019-03-26T23:34:02.185Z,101976.17
2019-03-26T23:36:51.676Z,101968.19
2019-03-26T23:39:20.835Z,101963.98
2019-03-26T23:41:49.979Z,101969.52
2019-03-26T23:44:25.679Z,101970.23
2019-03-26T23:46:52.486Z,101965.87
2019-03-26T23:49:21.631Z,101966.70
2019-03-26T23:51:50.809Z,101965.63
2019-03-26T23:54:19.973Z,101967.95
2019-03-26T23:56:49.143Z,101963.92
2019-03-26T23:59:18.326Z,101956.94
